METAR Data
IDs: Format: Raw Decoded Include TAF

Data at: 1320 UTC 11 Dec 2018

KCNW 111255Z 00000KT 10SM SKC 00/M01 A3038
KCNW 110455Z 18003KT 10SM SKC 05/01 A3039
KCNW 110355Z 00000KT 10SM SKC 05/00 A3039
KCNW 110255Z 18003KT 10SM SKC 07/00 A3039
KCNW 110155Z 15003KT 10SM SKC 05/00 A3039
KCNW 110055Z 15003KT 10SM SKC 08/01 A3038
KCNW 102355Z 13003KT 10SM SKC 10/01 A3036
KCNW 102250Z 00000KT 10SM SKC 14/M03 A3036
KCNW 102155Z 00000KT 10SM SKC 14/M03 A3035
KCNW 102055Z 00000KT 10SM SKC 14/M03 A3035
KCNW 101950Z 34004KT 10SM SKC 14/M03 A3036
KCNW 101855Z 25004KT 10SM SKC 13/02 A3038
KCNW 101755Z 29005KT 10SM SKC 11/00 A3041
KCNW 101655Z 00000KT 10SM SKC 09/02 A3043
KCNW 101550Z 30004KT 10SM SKC 05/02 A3044
KCNW 101455Z 00000KT 10SM SKC 03/00 A3043
KCNW 101355Z 00000KT 10SM SKC 00/M01 A3041
KCNW 101255Z 32004KT 10SM SKC 00/M01 A3039
KCNW 100455Z 30005KT 10SM SKC 04/03 A3040
KCNW 100355Z 29005KT 10SM SKC 04/03 A3039
KCNW 100255Z 31004KT 10SM SKC 04/03 A3037
KCNW 100155Z 31004KT 10SM SKC 05/03 A3035